sensor_id;sensor_type;location;lat;lon;timestamp;P1;durP1;ratioP1;P2;durP2;ratioP2
65757;SDS011;52495;52.208;5.158;2023-02-11T00:01:53;26.00;;;4.60;;
65757;SDS011;52495;52.208;5.158;2023-02-11T00:04:19;30.42;;;4.78;;
65757;SDS011;52495;52.208;5.158;2023-02-11T00:06:46;25.90;;;5.85;;
65757;SDS011;52495;52.208;5.158;2023-02-11T00:09:13;23.80;;;5.63;;
65757;SDS011;52495;52.208;5.158;2023-02-11T00:11:40;21.85;;;4.75;;
65757;SDS011;52495;52.208;5.158;2023-02-11T00:14:06;27.05;;;4.55;;
65757;SDS011;52495;52.208;5.158;2023-02-11T00:16:35;20.20;;;4.97;;
65757;SDS011;52495;52.208;5.158;2023-02-11T00:19:03;24.20;;;5.18;;
65757;SDS011;52495;52.208;5.158;2023-02-11T00:21:31;29.27;;;4.97;;
65757;SDS011;52495;52.208;5.158;2023-02-11T00:23:58;18.67;;;5.03;;
65757;SDS011;52495;52.208;5.158;2023-02-11T00:26:27;32.03;;;5.03;;
65757;SDS011;52495;52.208;5.158;2023-02-11T00:28:55;22.70;;;4.88;;
65757;SDS011;52495;52.208;5.158;2023-02-11T00:31:22;23.75;;;4.95;;
65757;SDS011;52495;52.208;5.158;2023-02-11T00:33:50;25.50;;;5.50;;
65757;SDS011;52495;52.208;5.158;2023-02-11T00:36:19;20.92;;;5.25;;
65757;SDS011;52495;52.208;5.158;2023-02-11T00:38:47;21.80;;;5.25;;
65757;SDS011;52495;52.208;5.158;2023-02-11T00:41:15;26.02;;;4.75;;
65757;SDS011;52495;52.208;5.158;2023-02-11T00:43:42;21.88;;;5.20;;
65757;SDS011;52495;52.208;5.158;2023-02-11T00:46:10;20.45;;;4.72;;
65757;SDS011;52495;52.208;5.158;2023-02-11T00:48:37;21.98;;;5.15;;
65757;SDS011;52495;52.208;5.158;2023-02-11T00:51:04;24.48;;;5.72;;
65757;SDS011;52495;52.208;5.158;2023-02-11T00:53:32;21.17;;;5.25;;
65757;SDS011;52495;52.208;5.158;2023-02-11T00:56:00;22.05;;;5.20;;
65757;SDS011;52495;52.208;5.158;2023-02-11T00:58:26;29.50;;;5.70;;
65757;SDS011;52495;52.208;5.158;2023-02-11T01:00:55;28.15;;;5.18;;
65757;SDS011;52495;52.208;5.158;2023-02-11T01:03:23;23.52;;;5.45;;
65757;SDS011;52495;52.208;5.158;2023-02-11T01:05:50;23.10;;;5.03;;
65757;SDS011;52495;52.208;5.158;2023-02-11T01:08:17;21.08;;;5.47;;
65757;SDS011;52495;52.208;5.158;2023-02-11T01:10:48;18.17;;;4.78;;
65757;SDS011;52495;52.208;5.158;2023-02-11T01:13:19;21.02;;;5.15;;
65757;SDS011;52495;52.208;5.158;2023-02-11T01:15:46;33.13;;;6.78;;
65757;SDS011;52495;52.208;5.158;2023-02-11T01:18:13;27.67;;;5.78;;
65757;SDS011;52495;52.208;5.158;2023-02-11T01:20:40;19.58;;;4.93;;
65757;SDS011;52495;52.208;5.158;2023-02-11T01:23:07;26.10;;;4.95;;
65757;SDS011;52495;52.208;5.158;2023-02-11T01:25:34;18.73;;;5.18;;
65757;SDS011;52495;52.208;5.158;2023-02-11T01:28:03;19.88;;;5.75;;
65757;SDS011;52495;52.208;5.158;2023-02-11T01:30:30;24.52;;;4.97;;
65757;SDS011;52495;52.208;5.158;2023-02-11T01:32:57;22.20;;;5.40;;
65757;SDS011;52495;52.208;5.158;2023-02-11T01:35:24;27.10;;;6.00;;
65757;SDS011;52495;52.208;5.158;2023-02-11T01:37:51;24.55;;;4.93;;
65757;SDS011;52495;52.208;5.158;2023-02-11T01:40:18;22.77;;;5.30;;
65757;SDS011;52495;52.208;5.158;2023-02-11T01:42:44;22.45;;;5.28;;
65757;SDS011;52495;52.208;5.158;2023-02-11T01:48:23;25.27;;;5.07;;
65757;SDS011;52495;52.208;5.158;2023-02-11T01:50:54;20.75;;;4.30;;
65757;SDS011;52495;52.208;5.158;2023-02-11T01:53:26;25.85;;;5.40;;
65757;SDS011;52495;52.208;5.158;2023-02-11T01:56:11;25.05;;;5.28;;
65757;SDS011;52495;52.208;5.158;2023-02-11T01:58:58;23.40;;;5.30;;
65757;SDS011;52495;52.208;5.158;2023-02-11T02:01:33;20.80;;;5.90;;
65757;SDS011;52495;52.208;5.158;2023-02-11T02:04:02;23.42;;;5.28;;
65757;SDS011;52495;52.208;5.158;2023-02-11T02:06:32;25.13;;;5.43;;
65757;SDS011;52495;52.208;5.158;2023-02-11T02:09:03;21.98;;;5.70;;
65757;SDS011;52495;52.208;5.158;2023-02-11T02:11:32;21.05;;;5.15;;
65757;SDS011;52495;52.208;5.158;2023-02-11T02:14:01;21.35;;;4.97;;
65757;SDS011;52495;52.208;5.158;2023-02-11T02:16:29;26.83;;;5.50;;
65757;SDS011;52495;52.208;5.158;2023-02-11T02:19:04;21.75;;;4.93;;
65757;SDS011;52495;52.208;5.158;2023-02-11T02:21:55;20.55;;;5.38;;
65757;SDS011;52495;52.208;5.158;2023-02-11T02:24:50;25.35;;;4.90;;
65757;SDS011;52495;52.208;5.158;2023-02-11T02:27:28;26.15;;;5.95;;
65757;SDS011;52495;52.208;5.158;2023-02-11T02:33:15;26.40;;;5.22;;
65757;SDS011;52495;52.208;5.158;2023-02-11T02:35:57;23.20;;;5.75;;
65757;SDS011;52495;52.208;5.158;2023-02-11T02:38:32;21.80;;;5.28;;
65757;SDS011;52495;52.208;5.158;2023-02-11T02:41:05;27.00;;;5.63;;
65757;SDS011;52495;52.208;5.158;2023-02-11T02:43:35;23.75;;;5.25;;
65757;SDS011;52495;52.208;5.158;2023-02-11T02:46:13;19.10;;;5.00;;
65757;SDS011;52495;52.208;5.158;2023-02-11T02:48:43;24.77;;;6.07;;
65757;SDS011;52495;52.208;5.158;2023-02-11T02:51:14;23.48;;;5.63;;
65757;SDS011;52495;52.208;5.158;2023-02-11T02:53:53;21.77;;;5.32;;
65757;SDS011;52495;52.208;5.158;2023-02-11T02:56:34;21.17;;;5.53;;
65757;SDS011;52495;52.208;5.158;2023-02-11T02:59:17;24.00;;;4.93;;
65757;SDS011;52495;52.208;5.158;2023-02-11T03:02:05;16.85;;;5.18;;
65757;SDS011;52495;52.208;5.158;2023-02-11T03:04:44;22.33;;;6.35;;
65757;SDS011;52495;52.208;5.158;2023-02-11T03:07:21;23.30;;;4.78;;
65757;SDS011;52495;52.208;5.158;2023-02-11T03:09:58;26.80;;;5.40;;
65757;SDS011;52495;52.208;5.158;2023-02-11T03:12:32;24.75;;;5.63;;
65757;SDS011;52495;52.208;5.158;2023-02-11T03:15:01;17.65;;;5.65;;
65757;SDS011;52495;52.208;5.158;2023-02-11T03:17:30;24.67;;;5.20;;
65757;SDS011;52495;52.208;5.158;2023-02-11T03:20:02;21.50;;;5.68;;
65757;SDS011;52495;52.208;5.158;2023-02-11T03:22:32;27.10;;;5.45;;
65757;SDS011;52495;52.208;5.158;2023-02-11T03:25:02;19.98;;;5.32;;
65757;SDS011;52495;52.208;5.158;2023-02-11T03:27:32;15.40;;;5.25;;
65757;SDS011;52495;52.208;5.158;2023-02-11T03:30:04;18.33;;;5.50;;
65757;SDS011;52495;52.208;5.158;2023-02-11T03:32:37;21.48;;;5.32;;
65757;SDS011;52495;52.208;5.158;2023-02-11T03:35:08;25.42;;;6.18;;
65757;SDS011;52495;52.208;5.158;2023-02-11T03:40:09;21.38;;;5.60;;
65757;SDS011;52495;52.208;5.158;2023-02-11T03:42:39;24.65;;;5.78;;
65757;SDS011;52495;52.208;5.158;2023-02-11T03:45:11;20.02;;;6.90;;
65757;SDS011;52495;52.208;5.158;2023-02-11T03:47:42;26.30;;;7.32;;
65757;SDS011;52495;52.208;5.158;2023-02-11T03:50:14;25.13;;;6.25;;
65757;SDS011;52495;52.208;5.158;2023-02-11T03:52:43;25.92;;;6.35;;
65757;SDS011;52495;52.208;5.158;2023-02-11T03:55:14;28.27;;;5.68;;
65757;SDS011;52495;52.208;5.158;2023-02-11T03:57:42;26.58;;;7.13;;
65757;SDS011;52495;52.208;5.158;2023-02-11T04:00:10;26.52;;;6.63;;
65757;SDS011;52495;52.208;5.158;2023-02-11T04:02:38;18.58;;;6.60;;
65757;SDS011;52495;52.208;5.158;2023-02-11T04:05:06;24.30;;;7.40;;
65757;SDS011;52495;52.208;5.158;2023-02-11T04:07:35;26.25;;;6.53;;
65757;SDS011;52495;52.208;5.158;2023-02-11T04:10:02;26.77;;;6.80;;
65757;SDS011;52495;52.208;5.158;2023-02-11T04:12:29;24.23;;;7.07;;
65757;SDS011;52495;52.208;5.158;2023-02-11T04:14:56;23.95;;;7.50;;
65757;SDS011;52495;52.208;5.158;2023-02-11T04:17:23;23.90;;;7.30;;
65757;SDS011;52495;52.208;5.158;2023-02-11T04:19:50;21.48;;;6.90;;
65757;SDS011;52495;52.208;5.158;2023-02-11T04:22:16;29.58;;;7.75;;
65757;SDS011;52495;52.208;5.158;2023-02-11T04:24:44;22.98;;;8.32;;
65757;SDS011;52495;52.208;5.158;2023-02-11T04:27:11;26.13;;;7.80;;
65757;SDS011;52495;52.208;5.158;2023-02-11T04:29:38;27.17;;;8.05;;
65757;SDS011;52495;52.208;5.158;2023-02-11T04:32:05;20.45;;;7.65;;
65757;SDS011;52495;52.208;5.158;2023-02-11T04:34:31;20.15;;;8.57;;
65757;SDS011;52495;52.208;5.158;2023-02-11T04:36:58;20.88;;;8.18;;
65757;SDS011;52495;52.208;5.158;2023-02-11T04:39:25;29.02;;;9.57;;
65757;SDS011;52495;52.208;5.158;2023-02-11T04:41:53;23.95;;;9.02;;
65757;SDS011;52495;52.208;5.158;2023-02-11T04:44:20;24.33;;;8.85;;
65757;SDS011;52495;52.208;5.158;2023-02-11T04:46:47;29.25;;;9.20;;
65757;SDS011;52495;52.208;5.158;2023-02-11T04:49:14;28.10;;;9.80;;
65757;SDS011;52495;52.208;5.158;2023-02-11T04:51:42;24.05;;;9.20;;
65757;SDS011;52495;52.208;5.158;2023-02-11T04:54:09;31.55;;;9.93;;
65757;SDS011;52495;52.208;5.158;2023-02-11T04:56:36;33.20;;;10.30;;
65757;SDS011;52495;52.208;5.158;2023-02-11T04:59:04;29.42;;;10.43;;
65757;SDS011;52495;52.208;5.158;2023-02-11T05:01:31;28.35;;;11.38;;
65757;SDS011;52495;52.208;5.158;2023-02-11T05:03:58;31.98;;;11.85;;
65757;SDS011;52495;52.208;5.158;2023-02-11T05:06:25;30.20;;;11.60;;
65757;SDS011;52495;52.208;5.158;2023-02-11T05:08:52;34.38;;;11.18;;
65757;SDS011;52495;52.208;5.158;2023-02-11T05:11:19;32.15;;;11.55;;
65757;SDS011;52495;52.208;5.158;2023-02-11T05:13:48;30.02;;;11.48;;
65757;SDS011;52495;52.208;5.158;2023-02-11T05:16:17;36.42;;;12.32;;
65757;SDS011;52495;52.208;5.158;2023-02-11T05:18:44;25.90;;;11.95;;
65757;SDS011;52495;52.208;5.158;2023-02-11T05:21:12;33.17;;;11.98;;
65757;SDS011;52495;52.208;5.158;2023-02-11T05:23:41;33.70;;;11.38;;
65757;SDS011;52495;52.208;5.158;2023-02-11T05:26:08;36.17;;;12.55;;
65757;SDS011;52495;52.208;5.158;2023-02-11T05:28:36;26.90;;;11.57;;
65757;SDS011;52495;52.208;5.158;2023-02-11T05:31:03;33.05;;;11.73;;
65757;SDS011;52495;52.208;5.158;2023-02-11T05:33:32;33.58;;;13.63;;
65757;SDS011;52495;52.208;5.158;2023-02-11T05:35:59;33.35;;;12.73;;
65757;SDS011;52495;52.208;5.158;2023-02-11T05:38:27;30.27;;;12.60;;
65757;SDS011;52495;52.208;5.158;2023-02-11T05:40:55;33.15;;;12.70;;
65757;SDS011;52495;52.208;5.158;2023-02-11T05:43:22;33.63;;;12.55;;
65757;SDS011;52495;52.208;5.158;2023-02-11T05:45:49;40.97;;;14.07;;
65757;SDS011;52495;52.208;5.158;2023-02-11T05:48:16;29.15;;;13.35;;
65757;SDS011;52495;52.208;5.158;2023-02-11T05:50:44;38.65;;;13.30;;
65757;SDS011;52495;52.208;5.158;2023-02-11T05:53:11;32.67;;;13.10;;
65757;SDS011;52495;52.208;5.158;2023-02-11T05:55:38;35.22;;;13.80;;
65757;SDS011;52495;52.208;5.158;2023-02-11T05:58:05;32.80;;;13.75;;
65757;SDS011;52495;52.208;5.158;2023-02-11T06:00:32;35.75;;;15.27;;
65757;SDS011;52495;52.208;5.158;2023-02-11T06:03:00;32.65;;;14.15;;
65757;SDS011;52495;52.208;5.158;2023-02-11T06:05:28;35.83;;;14.02;;
65757;SDS011;52495;52.208;5.158;2023-02-11T06:07:56;34.60;;;13.80;;
65757;SDS011;52495;52.208;5.158;2023-02-11T06:10:23;35.63;;;14.88;;
65757;SDS011;52495;52.208;5.158;2023-02-11T06:12:50;34.45;;;13.45;;
65757;SDS011;52495;52.208;5.158;2023-02-11T06:15:17;39.72;;;15.32;;
65757;SDS011;52495;52.208;5.158;2023-02-11T06:17:44;35.53;;;14.38;;
65757;SDS011;52495;52.208;5.158;2023-02-11T06:20:10;35.78;;;13.80;;
65757;SDS011;52495;52.208;5.158;2023-02-11T06:22:37;38.63;;;15.50;;
65757;SDS011;52495;52.208;5.158;2023-02-11T06:25:06;37.40;;;14.73;;
65757;SDS011;52495;52.208;5.158;2023-02-11T06:27:35;31.00;;;14.65;;
65757;SDS011;52495;52.208;5.158;2023-02-11T06:30:02;42.70;;;17.02;;
65757;SDS011;52495;52.208;5.158;2023-02-11T06:32:29;33.78;;;15.32;;
65757;SDS011;52495;52.208;5.158;2023-02-11T06:34:55;36.70;;;16.60;;
65757;SDS011;52495;52.208;5.158;2023-02-11T06:37:22;36.55;;;15.50;;
65757;SDS011;52495;52.208;5.158;2023-02-11T06:39:49;39.35;;;16.15;;
65757;SDS011;52495;52.208;5.158;2023-02-11T06:42:17;41.65;;;16.58;;
65757;SDS011;52495;52.208;5.158;2023-02-11T06:44:44;37.83;;;16.67;;
65757;SDS011;52495;52.208;5.158;2023-02-11T06:47:11;39.85;;;16.58;;
65757;SDS011;52495;52.208;5.158;2023-02-11T06:49:38;43.22;;;19.33;;
65757;SDS011;52495;52.208;5.158;2023-02-11T06:52:05;45.30;;;17.15;;
65757;SDS011;52495;52.208;5.158;2023-02-11T06:54:31;39.95;;;17.98;;
65757;SDS011;52495;52.208;5.158;2023-02-11T06:56:58;40.35;;;18.60;;
65757;SDS011;52495;52.208;5.158;2023-02-11T06:59:26;40.63;;;18.30;;
65757;SDS011;52495;52.208;5.158;2023-02-11T07:01:53;40.38;;;18.40;;
65757;SDS011;52495;52.208;5.158;2023-02-11T07:04:20;38.33;;;18.27;;
65757;SDS011;52495;52.208;5.158;2023-02-11T07:06:46;37.08;;;18.30;;
65757;SDS011;52495;52.208;5.158;2023-02-11T07:09:13;42.10;;;18.17;;
65757;SDS011;52495;52.208;5.158;2023-02-11T07:11:40;37.60;;;19.23;;
65757;SDS011;52495;52.208;5.158;2023-02-11T07:14:07;40.10;;;18.67;;
65757;SDS011;52495;52.208;5.158;2023-02-11T07:16:35;39.92;;;19.33;;
65757;SDS011;52495;52.208;5.158;2023-02-11T07:19:03;37.95;;;17.33;;
65757;SDS011;52495;52.208;5.158;2023-02-11T07:21:30;41.08;;;18.45;;
65757;SDS011;52495;52.208;5.158;2023-02-11T07:23:57;40.10;;;19.50;;
65757;SDS011;52495;52.208;5.158;2023-02-11T07:26:23;41.28;;;18.52;;
65757;SDS011;52495;52.208;5.158;2023-02-11T07:28:51;42.50;;;18.63;;
65757;SDS011;52495;52.208;5.158;2023-02-11T07:31:19;40.05;;;19.48;;
65757;SDS011;52495;52.208;5.158;2023-02-11T07:33:48;41.67;;;18.88;;
65757;SDS011;52495;52.208;5.158;2023-02-11T07:36:17;49.72;;;20.63;;
65757;SDS011;52495;52.208;5.158;2023-02-11T07:38:44;42.40;;;19.90;;
65757;SDS011;52495;52.208;5.158;2023-02-11T07:41:12;38.05;;;19.48;;
65757;SDS011;52495;52.208;5.158;2023-02-11T07:43:40;41.22;;;20.63;;
65757;SDS011;52495;52.208;5.158;2023-02-11T07:46:08;46.25;;;21.40;;
65757;SDS011;52495;52.208;5.158;2023-02-11T07:48:36;45.10;;;21.35;;
65757;SDS011;52495;52.208;5.158;2023-02-11T07:51:06;40.83;;;19.85;;
65757;SDS011;52495;52.208;5.158;2023-02-11T07:53:33;45.85;;;20.98;;
65757;SDS011;52495;52.208;5.158;2023-02-11T07:56:01;42.28;;;21.10;;
65757;SDS011;52495;52.208;5.158;2023-02-11T07:58:29;42.00;;;20.08;;
65757;SDS011;52495;52.208;5.158;2023-02-11T08:00:59;42.78;;;20.42;;
65757;SDS011;52495;52.208;5.158;2023-02-11T08:03:26;44.80;;;20.48;;
65757;SDS011;52495;52.208;5.158;2023-02-11T08:05:53;40.08;;;20.00;;
65757;SDS011;52495;52.208;5.158;2023-02-11T08:08:21;44.53;;;20.10;;
65757;SDS011;52495;52.208;5.158;2023-02-11T08:10:48;42.85;;;21.35;;
65757;SDS011;52495;52.208;5.158;2023-02-11T08:13:15;42.13;;;19.98;;
65757;SDS011;52495;52.208;5.158;2023-02-11T08:15:41;40.53;;;19.70;;
65757;SDS011;52495;52.208;5.158;2023-02-11T08:18:08;44.00;;;20.05;;
65757;SDS011;52495;52.208;5.158;2023-02-11T08:20:35;41.45;;;19.20;;
65757;SDS011;52495;52.208;5.158;2023-02-11T08:23:02;44.00;;;20.02;;
65757;SDS011;52495;52.208;5.158;2023-02-11T08:25:32;38.53;;;19.20;;
65757;SDS011;52495;52.208;5.158;2023-02-11T08:27:59;41.05;;;20.77;;
65757;SDS011;52495;52.208;5.158;2023-02-11T08:30:26;45.30;;;20.90;;
65757;SDS011;52495;52.208;5.158;2023-02-11T08:32:53;39.00;;;19.80;;
65757;SDS011;52495;52.208;5.158;2023-02-11T08:35:20;41.22;;;21.38;;
65757;SDS011;52495;52.208;5.158;2023-02-11T08:37:47;41.90;;;21.02;;
65757;SDS011;52495;52.208;5.158;2023-02-11T08:40:14;41.28;;;20.08;;
65757;SDS011;52495;52.208;5.158;2023-02-11T08:42:42;41.40;;;20.42;;
65757;SDS011;52495;52.208;5.158;2023-02-11T08:45:09;44.15;;;21.42;;
65757;SDS011;52495;52.208;5.158;2023-02-11T08:47:37;39.45;;;20.10;;
65757;SDS011;52495;52.208;5.158;2023-02-11T08:50:04;47.47;;;20.08;;
65757;SDS011;52495;52.208;5.158;2023-02-11T08:52:31;35.47;;;19.95;;
65757;SDS011;52495;52.208;5.158;2023-02-11T08:54:58;41.97;;;20.40;;
65757;SDS011;52495;52.208;5.158;2023-02-11T08:57:25;41.78;;;20.83;;
65757;SDS011;52495;52.208;5.158;2023-02-11T08:59:53;41.95;;;20.60;;
65757;SDS011;52495;52.208;5.158;2023-02-11T09:02:20;38.72;;;20.42;;
65757;SDS011;52495;52.208;5.158;2023-02-11T09:04:47;37.35;;;19.25;;
65757;SDS011;52495;52.208;5.158;2023-02-11T09:07:13;35.42;;;19.15;;
65757;SDS011;52495;52.208;5.158;2023-02-11T09:09:40;35.38;;;19.60;;
65757;SDS011;52495;52.208;5.158;2023-02-11T09:12:07;41.72;;;20.60;;
65757;SDS011;52495;52.208;5.158;2023-02-11T09:14:34;38.70;;;18.58;;
65757;SDS011;52495;52.208;5.158;2023-02-11T09:17:02;43.20;;;20.88;;
65757;SDS011;52495;52.208;5.158;2023-02-11T09:19:29;37.55;;;20.77;;
65757;SDS011;52495;52.208;5.158;2023-02-11T09:21:56;37.03;;;19.73;;
65757;SDS011;52495;52.208;5.158;2023-02-11T09:24:23;37.80;;;19.75;;
65757;SDS011;52495;52.208;5.158;2023-02-11T09:26:50;38.65;;;18.75;;
65757;SDS011;52495;52.208;5.158;2023-02-11T09:29:16;41.72;;;20.65;;
65757;SDS011;52495;52.208;5.158;2023-02-11T09:31:43;34.08;;;19.50;;
65757;SDS011;52495;52.208;5.158;2023-02-11T09:34:11;38.97;;;19.33;;
65757;SDS011;52495;52.208;5.158;2023-02-11T09:36:39;35.83;;;19.33;;
65757;SDS011;52495;52.208;5.158;2023-02-11T09:39:07;38.63;;;19.88;;
65757;SDS011;52495;52.208;5.158;2023-02-11T09:44:48;33.00;;;18.30;;
65757;SDS011;52495;52.208;5.158;2023-02-11T09:47:20;34.55;;;20.50;;
65757;SDS011;52495;52.208;5.158;2023-02-11T09:49:53;34.88;;;20.05;;
65757;SDS011;52495;52.208;5.158;2023-02-11T09:52:29;39.15;;;20.75;;
65757;SDS011;52495;52.208;5.158;2023-02-11T09:55:05;34.78;;;18.92;;
65757;SDS011;52495;52.208;5.158;2023-02-11T09:57:42;34.95;;;19.88;;
65757;SDS011;52495;52.208;5.158;2023-02-11T10:00:15;37.53;;;18.80;;
65757;SDS011;52495;52.208;5.158;2023-02-11T10:02:54;35.40;;;20.13;;
65757;SDS011;52495;52.208;5.158;2023-02-11T10:05:32;32.80;;;18.17;;
65757;SDS011;52495;52.208;5.158;2023-02-11T10:08:12;33.88;;;19.60;;
65757;SDS011;52495;52.208;5.158;2023-02-11T10:10:46;28.15;;;18.75;;
65757;SDS011;52495;52.208;5.158;2023-02-11T10:13:27;35.45;;;18.33;;
65757;SDS011;52495;52.208;5.158;2023-02-11T10:16:04;33.22;;;18.52;;
65757;SDS011;52495;52.208;5.158;2023-02-11T10:18:45;34.80;;;18.38;;
65757;SDS011;52495;52.208;5.158;2023-02-11T10:21:31;34.53;;;18.60;;
65757;SDS011;52495;52.208;5.158;2023-02-11T10:24:09;36.75;;;20.98;;
65757;SDS011;52495;52.208;5.158;2023-02-11T10:26:37;44.72;;;21.10;;
65757;SDS011;52495;52.208;5.158;2023-02-11T10:29:22;38.13;;;19.42;;
65757;SDS011;52495;52.208;5.158;2023-02-11T10:31:59;31.00;;;18.20;;
65757;SDS011;52495;52.208;5.158;2023-02-11T10:34:29;36.13;;;18.95;;
65757;SDS011;52495;52.208;5.158;2023-02-11T10:36:57;31.52;;;18.85;;
65757;SDS011;52495;52.208;5.158;2023-02-11T10:39:25;33.22;;;19.27;;
65757;SDS011;52495;52.208;5.158;2023-02-11T10:41:53;36.55;;;19.08;;
65757;SDS011;52495;52.208;5.158;2023-02-11T10:44:23;31.00;;;18.20;;
65757;SDS011;52495;52.208;5.158;2023-02-11T10:46:53;27.90;;;17.20;;
65757;SDS011;52495;52.208;5.158;2023-02-11T10:52:13;33.72;;;18.10;;
65757;SDS011;52495;52.208;5.158;2023-02-11T10:54:57;31.48;;;16.08;;
65757;SDS011;52495;52.208;5.158;2023-02-11T10:57:32;23.17;;;14.82;;
65757;SDS011;52495;52.208;5.158;2023-02-11T11:00:04;28.15;;;15.02;;
65757;SDS011;52495;52.208;5.158;2023-02-11T11:05:18;20.05;;;12.35;;
65757;SDS011;52495;52.208;5.158;2023-02-11T11:07:54;15.85;;;10.82;;
65757;SDS011;52495;52.208;5.158;2023-02-11T11:10:27;14.45;;;9.77;;
65757;SDS011;52495;52.208;5.158;2023-02-11T11:13:25;18.90;;;9.40;;
65757;SDS011;52495;52.208;5.158;2023-02-11T11:16:14;15.00;;;10.02;;
65757;SDS011;52495;52.208;5.158;2023-02-11T11:18:43;17.20;;;8.77;;
65757;SDS011;52495;52.208;5.158;2023-02-11T11:21:19;14.85;;;9.63;;
65757;SDS011;52495;52.208;5.158;2023-02-11T11:24:12;14.75;;;8.90;;
65757;SDS011;52495;52.208;5.158;2023-02-11T11:26:42;15.43;;;9.82;;
65757;SDS011;52495;52.208;5.158;2023-02-11T11:29:12;12.73;;;8.88;;
65757;SDS011;52495;52.208;5.158;2023-02-11T11:31:47;13.90;;;8.93;;
65757;SDS011;52495;52.208;5.158;2023-02-11T11:34:20;17.50;;;8.77;;
65757;SDS011;52495;52.208;5.158;2023-02-11T11:36:50;13.10;;;8.68;;
65757;SDS011;52495;52.208;5.158;2023-02-11T11:39:20;12.18;;;8.63;;
65757;SDS011;52495;52.208;5.158;2023-02-11T11:41:50;14.63;;;9.25;;
65757;SDS011;52495;52.208;5.158;2023-02-11T11:44:27;13.18;;;9.18;;
65757;SDS011;52495;52.208;5.158;2023-02-11T11:47:18;12.82;;;9.00;;
65757;SDS011;52495;52.208;5.158;2023-02-11T11:52:25;14.15;;;7.57;;
65757;SDS011;52495;52.208;5.158;2023-02-11T11:55:04;12.75;;;7.45;;
65757;SDS011;52495;52.208;5.158;2023-02-11T11:57:37;14.38;;;8.77;;
65757;SDS011;52495;52.208;5.158;2023-02-11T12:00:05;13.60;;;7.97;;
65757;SDS011;52495;52.208;5.158;2023-02-11T12:02:52;14.02;;;7.90;;
65757;SDS011;52495;52.208;5.158;2023-02-11T12:05:36;15.80;;;7.90;;
65757;SDS011;52495;52.208;5.158;2023-02-11T12:08:13;13.25;;;8.25;;
65757;SDS011;52495;52.208;5.158;2023-02-11T12:10:49;13.88;;;8.32;;
65757;SDS011;52495;52.208;5.158;2023-02-11T12:13:31;9.43;;;7.00;;
65757;SDS011;52495;52.208;5.158;2023-02-11T12:16:08;14.07;;;8.32;;
65757;SDS011;52495;52.208;5.158;2023-02-11T12:21:41;15.32;;;8.15;;
65757;SDS011;52495;52.208;5.158;2023-02-11T12:24:23;19.30;;;7.88;;
65757;SDS011;52495;52.208;5.158;2023-02-11T12:27:03;9.98;;;8.15;;
65757;SDS011;52495;52.208;5.158;2023-02-11T12:29:36;11.17;;;7.50;;
65757;SDS011;52495;52.208;5.158;2023-02-11T12:32:16;13.75;;;9.10;;
65757;SDS011;52495;52.208;5.158;2023-02-11T12:37:47;10.70;;;8.00;;
65757;SDS011;52495;52.208;5.158;2023-02-11T12:40:32;12.25;;;7.65;;
65757;SDS011;52495;52.208;5.158;2023-02-11T12:43:10;15.20;;;7.97;;
65757;SDS011;52495;52.208;5.158;2023-02-11T12:51:48;11.10;;;7.15;;
65757;SDS011;52495;52.208;5.158;2023-02-11T12:54:25;12.95;;;8.05;;
65757;SDS011;52495;52.208;5.158;2023-02-11T12:56:56;9.95;;;7.18;;
65757;SDS011;52495;52.208;5.158;2023-02-11T12:59:33;12.20;;;7.57;;
65757;SDS011;52495;52.208;5.158;2023-02-11T13:02:14;13.13;;;7.45;;
65757;SDS011;52495;52.208;5.158;2023-02-11T13:04:47;12.52;;;7.43;;
65757;SDS011;52495;52.208;5.158;2023-02-11T13:07:18;11.68;;;7.13;;
65757;SDS011;52495;52.208;5.158;2023-02-11T13:09:52;11.75;;;7.03;;
65757;SDS011;52495;52.208;5.158;2023-02-11T13:15:13;13.98;;;7.10;;
65757;SDS011;52495;52.208;5.158;2023-02-11T13:17:42;13.90;;;8.55;;
65757;SDS011;52495;52.208;5.158;2023-02-11T13:20:20;11.23;;;6.70;;
65757;SDS011;52495;52.208;5.158;2023-02-11T13:22:57;10.10;;;5.55;;
65757;SDS011;52495;52.208;5.158;2023-02-11T13:25:29;11.52;;;7.15;;
65757;SDS011;52495;52.208;5.158;2023-02-11T13:28:02;13.27;;;7.95;;
65757;SDS011;52495;52.208;5.158;2023-02-11T13:30:41;11.13;;;7.47;;
65757;SDS011;52495;52.208;5.158;2023-02-11T13:33:16;11.57;;;7.55;;
65757;SDS011;52495;52.208;5.158;2023-02-11T13:35:46;11.95;;;7.55;;
65757;SDS011;52495;52.208;5.158;2023-02-11T13:38:34;13.45;;;7.85;;
65757;SDS011;52495;52.208;5.158;2023-02-11T13:41:03;11.00;;;7.10;;
65757;SDS011;52495;52.208;5.158;2023-02-11T13:43:32;11.68;;;6.30;;
65757;SDS011;52495;52.208;5.158;2023-02-11T13:46:03;11.45;;;6.82;;
65757;SDS011;52495;52.208;5.158;2023-02-11T13:48:32;10.90;;;7.18;;
65757;SDS011;52495;52.208;5.158;2023-02-11T13:51:02;10.48;;;6.38;;
65757;SDS011;52495;52.208;5.158;2023-02-11T13:53:41;15.10;;;7.13;;
65757;SDS011;52495;52.208;5.158;2023-02-11T13:56:21;12.57;;;6.32;;
65757;SDS011;52495;52.208;5.158;2023-02-11T13:58:54;10.57;;;6.50;;
65757;SDS011;52495;52.208;5.158;2023-02-11T14:05:08;10.80;;;6.90;;
65757;SDS011;52495;52.208;5.158;2023-02-11T14:08:16;10.90;;;6.75;;
65757;SDS011;52495;52.208;5.158;2023-02-11T14:11:05;9.52;;;6.15;;
65757;SDS011;52495;52.208;5.158;2023-02-11T14:16:27;11.75;;;6.00;;
65757;SDS011;52495;52.208;5.158;2023-02-11T14:18:58;9.73;;;6.05;;
65757;SDS011;52495;52.208;5.158;2023-02-11T14:21:32;11.32;;;6.65;;
65757;SDS011;52495;52.208;5.158;2023-02-11T14:27:14;10.23;;;6.07;;
65757;SDS011;52495;52.208;5.158;2023-02-11T14:29:52;10.00;;;6.57;;
65757;SDS011;52495;52.208;5.158;2023-02-11T14:32:42;11.35;;;6.97;;
65757;SDS011;52495;52.208;5.158;2023-02-11T14:35:20;9.98;;;5.63;;
65757;SDS011;52495;52.208;5.158;2023-02-11T14:37:56;14.65;;;7.55;;
65757;SDS011;52495;52.208;5.158;2023-02-11T14:40:32;11.68;;;6.75;;
65757;SDS011;52495;52.208;5.158;2023-02-11T14:43:06;13.55;;;6.38;;
65757;SDS011;52495;52.208;5.158;2023-02-11T14:45:38;8.13;;;6.25;;
65757;SDS011;52495;52.208;5.158;2023-02-11T14:48:06;11.23;;;6.55;;
65757;SDS011;52495;52.208;5.158;2023-02-11T14:50:40;11.10;;;5.90;;
65757;SDS011;52495;52.208;5.158;2023-02-11T14:53:13;11.77;;;6.18;;
65757;SDS011;52495;52.208;5.158;2023-02-11T14:55:43;9.38;;;6.07;;
65757;SDS011;52495;52.208;5.158;2023-02-11T14:58:14;13.23;;;6.10;;
65757;SDS011;52495;52.208;5.158;2023-02-11T15:00:46;11.70;;;6.05;;
65757;SDS011;52495;52.208;5.158;2023-02-11T15:06:15;12.38;;;6.57;;
65757;SDS011;52495;52.208;5.158;2023-02-11T15:08:46;14.48;;;6.53;;
65757;SDS011;52495;52.208;5.158;2023-02-11T15:11:16;10.95;;;6.60;;
65757;SDS011;52495;52.208;5.158;2023-02-11T15:13:45;11.23;;;6.47;;
65757;SDS011;52495;52.208;5.158;2023-02-11T15:16:14;12.77;;;6.60;;
65757;SDS011;52495;52.208;5.158;2023-02-11T15:18:44;13.05;;;6.00;;
65757;SDS011;52495;52.208;5.158;2023-02-11T15:21:14;11.13;;;5.70;;
65757;SDS011;52495;52.208;5.158;2023-02-11T15:26:21;13.95;;;6.95;;
65757;SDS011;52495;52.208;5.158;2023-02-11T15:28:48;13.23;;;6.05;;
65757;SDS011;52495;52.208;5.158;2023-02-11T15:31:17;13.35;;;6.47;;
65757;SDS011;52495;52.208;5.158;2023-02-11T15:33:45;10.32;;;6.22;;
65757;SDS011;52495;52.208;5.158;2023-02-11T15:36:12;10.57;;;6.05;;
65757;SDS011;52495;52.208;5.158;2023-02-11T15:38:40;11.50;;;6.90;;
65757;SDS011;52495;52.208;5.158;2023-02-11T15:44:03;10.60;;;6.13;;